Terminal Aerodrome Forecast
Issued by NWS

Home | Current Version | Previous Version | Text Only | Print | Product List | Glossary On
Versions: 1 2 3 4 5 6 7 8 9 10 11 12 13 14 15 16 17 18 19 20 21 22 23 24 25 26 27 28 29 30 31 32 33 34 35 36
290
FTUS44 KLZK 291123
TAFADF
TAF
KADF 291123Z 2912/3012 08008KT P6SM VCTS SCT020 BKN040CB
      TEMPO 2912/2916 5SM -TSRA BR BKN020CB OVC040
     FM291700 16010G18KT P6SM BKN025 OVC050
     FM292100 16010G20KT P6SM VCTS SCT025 BKN050CB
     FM300100 16012G22KT 5SM -TSRA BR BKN025CB OVC060 PROB30
      3001/3007 1SM TSRA BR BKN008 OVC015CB
     FM300800 21008G16KT P6SM SCT025 BKN080=

USA.gov is the U.S. government's official web portal to all federal, state and local government web resources and services.